NDF5516 ESSA-KMIA
Flight info
| Callsign | NDF5516 |
|---|---|
| Flight time | N/A |
| Altitude | 34000 |
| Route | ARS6G ARS N623 BEDLA N866 LAPSI DCT NEGIL DCT INVOL N866 AAL Z716 VAXIT DCT MADAD DCT MOLAK DCT BEXET DCT DOGAL NATA ALLRY/N0474F360 N476B TOPPS DCT BEEKN Q97 TBONN/N0481F380 Q97 KALDA DCT BGBRD Q101 SKARP Y313 HOAGG BNFSH3 |
| Aircraft | B77W/H-SDE1E2E3FGHIJ2J3J4J5M1RWXY/LB1D1 |
Departure
| Time | 2026-05-01 10:01 |
|---|---|
| Airport | Stockholm-Arlanda Airport (ESSA) |
Arrival
| Time | N/A |
|---|---|
| Airport | Miami International Airport (KMIA) |
| Time | Latitude | Longitude | Altitude | Speed | Heading |
|---|---|---|---|---|---|
| 2026-05-01 08:48 | 59.65471 | 17.93462 | 116 ft | 0 kts | 76° |
| 2026-05-01 08:49 | 59.65474 | 17.93745 | 112 ft | 0 kts | 248° |
| 2026-05-01 09:50 | 59.65475 | 17.93751 | 116 ft | 3 kts | 248° |
| 2026-05-01 09:50 | 59.65483 | 17.93791 | 112 ft | 2 kts | 248° |
| 2026-05-01 09:51 | 59.65492 | 17.93835 | 112 ft | 4 kts | 251° |
| 2026-05-01 09:51 | 59.65496 | 17.93874 | 113 ft | 4 kts | 289° |
| 2026-05-01 09:51 | 59.65487 | 17.93901 | 113 ft | 4 kts | 332° |
| 2026-05-01 09:51 | 59.65464 | 17.93920 | 113 ft | 4 kts | 345° |
| 2026-05-01 09:52 | 59.65446 | 17.93929 | 113 ft | 1 kts | 346° |
| 2026-05-01 09:54 | 59.65483 | 17.93911 | 117 ft | 8 kts | 346° |
| 2026-05-01 09:55 | 59.65540 | 17.93883 | 114 ft | 8 kts | 346° |
| 2026-05-01 09:55 | 59.65593 | 17.93841 | 114 ft | 8 kts | 314° |
| 2026-05-01 09:55 | 59.65588 | 17.93730 | 113 ft | 9 kts | 252° |
| 2026-05-01 09:55 | 59.65570 | 17.93600 | 115 ft | 12 kts | 255° |
| 2026-05-01 09:56 | 59.65545 | 17.93402 | 112 ft | 16 kts | 255° |
| 2026-05-01 09:56 | 59.65517 | 17.93188 | 112 ft | 16 kts | 256° |
| 2026-05-01 09:56 | 59.65488 | 17.92974 | 113 ft | 16 kts | 252° |
| 2026-05-01 09:56 | 59.65451 | 17.92783 | 115 ft | 10 kts | 244° |
| 2026-05-01 09:57 | 59.65427 | 17.92666 | 113 ft | 9 kts | 270° |
| 2026-05-01 09:57 | 59.65479 | 17.92575 | 108 ft | 14 kts | 331° |
| 2026-05-01 09:57 | 59.65597 | 17.92496 | 108 ft | 19 kts | 345° |
| 2026-05-01 09:57 | 59.65721 | 17.92431 | 109 ft | 16 kts | 345° |
| 2026-05-01 09:58 | 59.65825 | 17.92442 | 109 ft | 17 kts | 10° |
| 2026-05-01 09:58 | 59.65974 | 17.92497 | 110 ft | 26 kts | 11° |
| 2026-05-01 09:58 | 59.66153 | 17.92563 | 113 ft | 26 kts | 10° |
| 2026-05-01 09:58 | 59.66330 | 17.92629 | 119 ft | 26 kts | 11° |
| 2026-05-01 09:59 | 59.66473 | 17.92649 | 123 ft | 15 kts | 347° |
| 2026-05-01 09:59 | 59.66568 | 17.92583 | 126 ft | 9 kts | 339° |
| 2026-05-01 09:59 | 59.66614 | 17.92516 | 126 ft | 8 kts | 298° |
| 2026-05-01 09:59 | 59.66623 | 17.92410 | 125 ft | 5 kts | 269° |
| 2026-05-01 10:00 | 59.66605 | 17.92368 | 124 ft | 2 kts | 199° |
| 2026-05-01 10:00 | 59.66599 | 17.92366 | 125 ft | 0 kts | 192° |
| 2026-05-01 10:00 | 59.66463 | 17.92315 | 124 ft | 57 kts | 191° |
| 2026-05-01 10:00 | 59.65786 | 17.92069 | 113 ft | 139 kts | 190° |
| 2026-05-01 10:01 | 59.64615 | 17.91623 | 159 ft | 195 kts | 192° |
| 2026-05-01 10:01 | 59.63281 | 17.91136 | 818 ft | 195 kts | 193° |
| 2026-05-01 10:01 | 59.61936 | 17.90615 | 1542 ft | 199 kts | 200° |
| 2026-05-01 10:01 | 59.60794 | 17.89077 | 1747 ft | 205 kts | 240° |
| 2026-05-01 10:02 | 59.60154 | 17.86663 | 2343 ft | 202 kts | 244° |
| 2026-05-01 10:02 | 59.59457 | 17.84175 | 2743 ft | 210 kts | 242° |
| 2026-05-01 10:02 | 59.58708 | 17.81687 | 3288 ft | 211 kts | 242° |
| 2026-05-01 10:02 | 59.57978 | 17.79093 | 3664 ft | 222 kts | 245° |
| 2026-05-01 10:03 | 59.57328 | 17.76458 | 4106 ft | 232 kts | 247° |
| 2026-05-01 10:03 | 59.56753 | 17.73488 | 4564 ft | 235 kts | 264° |
| 2026-05-01 10:03 | 59.56753 | 17.70245 | 4875 ft | 244 kts | 276° |
| 2026-05-01 10:03 | 59.56868 | 17.66908 | 5553 ft | 243 kts | 275° |
| 2026-05-01 10:04 | 59.56952 | 17.63529 | 6135 ft | 250 kts | 274° |
| 2026-05-01 10:04 | 59.57018 | 17.60126 | 6751 ft | 252 kts | 274° |
| 2026-05-01 10:04 | 59.57082 | 17.56672 | 7390 ft | 253 kts | 274° |
| 2026-05-01 10:04 | 59.57150 | 17.53159 | 7960 ft | 258 kts | 273° |
| 2026-05-01 10:05 | 59.56950 | 17.49663 | 8425 ft | 264 kts | 249° |
| 2026-05-01 10:05 | 59.56033 | 17.46491 | 8934 ft | 268 kts | 241° |
| 2026-05-01 10:05 | 59.55044 | 17.43350 | 9549 ft | 270 kts | 242° |
| 2026-05-01 10:05 | 59.54075 | 17.40159 | 10174 ft | 271 kts | 243° |
| 2026-05-01 10:06 | 59.53115 | 17.36898 | 10578 ft | 282 kts | 244° |
| 2026-05-01 10:06 | 59.52113 | 17.33419 | 10717 ft | 302 kts | 244° |
| 2026-05-01 10:06 | 59.51052 | 17.29679 | 10885 ft | 323 kts | 244° |
| 2026-05-01 10:06 | 59.49930 | 17.25686 | 11043 ft | 344 kts | 244° |
| 2026-05-01 10:07 | 59.48752 | 17.21477 | 11451 ft | 356 kts | 244° |
| 2026-05-01 10:07 | 59.47547 | 17.17162 | 12073 ft | 363 kts | 244° |
| 2026-05-01 10:07 | 59.46330 | 17.12807 | 12820 ft | 368 kts | 245° |
| 2026-05-01 10:07 | 59.45089 | 17.08366 | 13626 ft | 372 kts | 245° |
| 2026-05-01 10:08 | 59.42567 | 16.99351 | 15091 ft | 380 kts | 245° |
| 2026-05-01 10:08 | 59.41286 | 16.94777 | 15822 ft | 384 kts | 245° |
| 2026-05-01 10:08 | 59.40007 | 16.90226 | 16540 ft | 387 kts | 245° |
| 2026-05-01 10:09 | 59.38690 | 16.85552 | 17262 ft | 391 kts | 245° |
| 2026-05-01 10:09 | 59.37802 | 16.82435 | 17729 ft | 394 kts | 245° |
| 2026-05-01 10:09 | 59.35991 | 16.76140 | 18625 ft | 400 kts | 245° |
| 2026-05-01 10:09 | 59.34621 | 16.71396 | 19234 ft | 404 kts | 245° |
| 2026-05-01 10:10 | 59.33699 | 16.68204 | 19647 ft | 406 kts | 245° |
| 2026-05-01 10:10 | 59.31837 | 16.61761 | 20482 ft | 410 kts | 244° |
| 2026-05-01 10:10 | 59.29457 | 16.53552 | 21453 ft | 417 kts | 244° |
| 2026-05-01 10:11 | 59.28027 | 16.48640 | 22038 ft | 421 kts | 244° |
| 2026-05-01 10:11 | 59.26569 | 16.43637 | 22623 ft | 424 kts | 244° |
| 2026-05-01 10:11 | 59.25109 | 16.38637 | 23170 ft | 429 kts | 244° |
| 2026-05-01 10:11 | 59.23621 | 16.33546 | 23706 ft | 433 kts | 244° |
| 2026-05-01 10:12 | 59.22114 | 16.28407 | 24185 ft | 436 kts | 244° |
| 2026-05-01 10:12 | 59.20610 | 16.23293 | 24653 ft | 439 kts | 244° |
| 2026-05-01 10:12 | 59.17539 | 16.12893 | 25538 ft | 446 kts | 244° |
| 2026-05-01 10:13 | 59.15971 | 16.07599 | 25982 ft | 449 kts | 244° |
| 2026-05-01 10:13 | 59.14414 | 16.02352 | 26409 ft | 452 kts | 243° |
| 2026-05-01 10:13 | 59.12830 | 15.97024 | 26805 ft | 455 kts | 243° |
| 2026-05-01 10:14 | 59.09634 | 15.86310 | 27600 ft | 461 kts | 243° |
| 2026-05-01 10:14 | 59.08031 | 15.80957 | 27996 ft | 464 kts | 243° |
| 2026-05-01 10:14 | 59.06388 | 15.75481 | 28363 ft | 467 kts | 243° |
| 2026-05-01 10:14 | 59.04737 | 15.69991 | 28709 ft | 470 kts | 243° |
| 2026-05-01 10:15 | 59.03095 | 15.64547 | 29050 ft | 473 kts | 243° |
| 2026-05-01 10:15 | 59.01419 | 15.59001 | 29396 ft | 475 kts | 242° |
| 2026-05-01 10:15 | 58.99760 | 15.53525 | 29796 ft | 476 kts | 242° |
| 2026-05-01 10:15 | 58.98076 | 15.47978 | 30281 ft | 474 kts | 242° |
| 2026-05-01 10:16 | 58.96394 | 15.42450 | 30732 ft | 472 kts | 242° |
| 2026-05-01 10:16 | 58.94740 | 15.37025 | 31148 ft | 471 kts | 242° |
| 2026-05-01 10:16 | 58.91410 | 15.26149 | 31879 ft | 470 kts | 242° |
| 2026-05-01 10:17 | 58.89733 | 15.20698 | 32246 ft | 469 kts | 242° |
| 2026-05-01 10:17 | 58.86412 | 15.09936 | 32946 ft | 467 kts | 242° |
| 2026-05-01 10:17 | 58.84741 | 15.04534 | 33285 ft | 467 kts | 242° |
| 2026-05-01 10:18 | 58.81423 | 14.93845 | 33971 ft | 465 kts | 242° |
| 2026-05-01 10:18 | 58.79750 | 14.88474 | 34202 ft | 467 kts | 242° |
| 2026-05-01 10:19 | 58.76384 | 14.77699 | 34264 ft | 469 kts | 242° |
| 2026-05-01 10:19 | 58.73018 | 14.66981 | 34259 ft | 464 kts | 242° |
| 2026-05-01 10:20 | 58.68021 | 14.51148 | 34261 ft | 463 kts | 242° |
| 2026-05-01 10:20 | 58.64673 | 14.40620 | 34258 ft | 463 kts | 241° |
| 2026-05-01 10:21 | 58.59610 | 14.24777 | 34283 ft | 464 kts | 241° |
| 2026-05-01 10:22 | 58.54541 | 14.09011 | 34275 ft | 465 kts | 241° |
| 2026-05-01 10:23 | 58.49418 | 13.93187 | 34277 ft | 466 kts | 240° |
| 2026-05-01 10:23 | 58.44286 | 13.77438 | 34281 ft | 467 kts | 240° |
| 2026-05-01 10:24 | 58.37384 | 13.56423 | 34294 ft | 467 kts | 240° |
| 2026-05-01 10:25 | 58.30474 | 13.35568 | 34302 ft | 467 kts | 240° |
| 2026-05-01 10:26 | 58.27003 | 13.25164 | 34297 ft | 467 kts | 240° |
| 2026-05-01 10:27 | 58.22389 | 13.11396 | 34304 ft | 467 kts | 239° |
| 2026-05-01 10:28 | 58.17596 | 12.97182 | 34309 ft | 467 kts | 239° |
| 2026-05-01 10:28 | 58.12356 | 12.81728 | 34315 ft | 468 kts | 239° |
| 2026-05-01 10:29 | 58.07055 | 12.66219 | 34330 ft | 469 kts | 239° |
| 2026-05-01 10:30 | 57.99967 | 12.45637 | 34335 ft | 469 kts | 239° |
| 2026-05-01 10:31 | 57.92816 | 12.25039 | 34358 ft | 469 kts | 238° |
| 2026-05-01 10:32 | 57.87439 | 12.09667 | 34369 ft | 470 kts | 238° |
| 2026-05-01 10:33 | 57.80231 | 11.89214 | 34372 ft | 469 kts | 238° |
| 2026-05-01 10:34 | 57.75012 | 11.74513 | 34375 ft | 469 kts | 238° |
| 2026-05-01 10:34 | 57.71400 | 11.64390 | 34376 ft | 469 kts | 238° |
| 2026-05-01 10:35 | 57.65950 | 11.49196 | 34372 ft | 469 kts | 238° |
| 2026-05-01 10:35 | 57.62316 | 11.39114 | 34365 ft | 470 kts | 238° |
| 2026-05-01 10:36 | 57.56795 | 11.23884 | 34368 ft | 470 kts | 237° |
| 2026-05-01 10:37 | 57.53114 | 11.13785 | 34361 ft | 471 kts | 237° |
| 2026-05-01 10:37 | 57.47587 | 10.98713 | 34364 ft | 471 kts | 237° |
| 2026-05-01 10:38 | 57.43878 | 10.88652 | 34367 ft | 472 kts | 237° |
| 2026-05-01 10:38 | 57.40175 | 10.78640 | 34367 ft | 472 kts | 237° |
| 2026-05-01 10:39 | 57.36454 | 10.68622 | 34367 ft | 472 kts | 237° |
| 2026-05-01 10:39 | 57.32734 | 10.58644 | 34372 ft | 472 kts | 237° |
| 2026-05-01 10:40 | 57.29007 | 10.48693 | 34372 ft | 472 kts | 237° |
| 2026-05-01 10:40 | 57.25402 | 10.39105 | 34367 ft | 472 kts | 237° |
| 2026-05-01 10:41 | 57.21631 | 10.29115 | 34374 ft | 472 kts | 237° |
| 2026-05-01 10:42 | 57.16002 | 10.14274 | 34371 ft | 473 kts | 237° |
| 2026-05-01 10:42 | 57.12303 | 10.04284 | 34369 ft | 472 kts | 242° |
| 2026-05-01 10:43 | 57.09816 | 9.93193 | 34377 ft | 468 kts | 256° |
| 2026-05-01 10:43 | 57.08604 | 9.81477 | 34375 ft | 466 kts | 262° |
| 2026-05-01 10:44 | 57.07559 | 9.69708 | 34377 ft | 467 kts | 262° |
| 2026-05-01 10:44 | 57.06479 | 9.57938 | 34373 ft | 467 kts | 262° |
| 2026-05-01 10:45 | 57.05362 | 9.46199 | 34379 ft | 467 kts | 262° |
| 2026-05-01 10:45 | 57.04226 | 9.34470 | 34372 ft | 467 kts | 261° |
| 2026-05-01 10:46 | 57.03072 | 9.22692 | 34372 ft | 467 kts | 261° |
| 2026-05-01 10:46 | 57.01915 | 9.10994 | 34369 ft | 467 kts | 261° |
| 2026-05-01 10:47 | 57.00731 | 8.99132 | 34382 ft | 466 kts | 261° |
| 2026-05-01 10:47 | 56.99557 | 8.87483 | 34379 ft | 466 kts | 261° |
| 2026-05-01 10:48 | 56.98337 | 8.75504 | 34377 ft | 466 kts | 261° |
| 2026-05-01 10:48 | 56.97135 | 8.63806 | 34375 ft | 466 kts | 261° |
| 2026-05-01 10:49 | 56.95927 | 8.52173 | 34370 ft | 465 kts | 261° |
| 2026-05-01 10:49 | 56.94736 | 8.40810 | 34373 ft | 465 kts | 261° |
| 2026-05-01 10:50 | 56.93508 | 8.29207 | 34372 ft | 465 kts | 260° |
| 2026-05-01 10:50 | 56.92273 | 8.17641 | 34369 ft | 464 kts | 260° |
| 2026-05-01 10:51 | 56.91027 | 8.06074 | 34377 ft | 463 kts | 260° |
| 2026-05-01 10:51 | 56.89771 | 7.94530 | 34369 ft | 463 kts | 260° |
| 2026-05-01 10:52 | 56.88502 | 7.82976 | 34369 ft | 464 kts | 260° |
| 2026-05-01 10:52 | 56.87224 | 7.71436 | 34368 ft | 464 kts | 260° |
| 2026-05-01 10:53 | 56.85933 | 7.59885 | 34366 ft | 465 kts | 259° |
| 2026-05-01 10:53 | 56.84845 | 7.50230 | 34360 ft | 465 kts | 259° |
| 2026-05-01 10:54 | 56.83310 | 7.36727 | 34362 ft | 465 kts | 259° |
| 2026-05-01 10:54 | 56.82454 | 7.29258 | 34361 ft | 466 kts | 259° |
| 2026-05-01 10:55 | 56.81303 | 7.19280 | 34363 ft | 466 kts | 259° |
| 2026-05-01 10:55 | 56.79956 | 7.07698 | 34357 ft | 466 kts | 259° |
| 2026-05-01 10:56 | 56.78601 | 6.96152 | 34357 ft | 466 kts | 259° |
| 2026-05-01 10:56 | 56.77235 | 6.84605 | 34351 ft | 466 kts | 259° |
| 2026-05-01 10:57 | 56.75861 | 6.73087 | 34352 ft | 466 kts | 258° |
| 2026-05-01 10:57 | 56.74476 | 6.61582 | 34352 ft | 466 kts | 258° |
| 2026-05-01 10:58 | 56.73081 | 6.50081 | 34345 ft | 465 kts | 258° |
| 2026-05-01 10:58 | 56.71675 | 6.38595 | 34344 ft | 465 kts | 258° |
| 2026-05-01 10:59 | 56.70257 | 6.27101 | 34342 ft | 465 kts | 258° |
| 2026-05-01 10:59 | 56.68831 | 6.15635 | 34339 ft | 466 kts | 258° |
| 2026-05-01 11:00 | 56.67391 | 6.04150 | 34337 ft | 466 kts | 258° |
| 2026-05-01 11:00 | 56.65945 | 5.92707 | 34335 ft | 466 kts | 258° |
| 2026-05-01 11:01 | 56.64481 | 5.81218 | 34338 ft | 466 kts | 258° |
| 2026-05-01 11:01 | 56.63009 | 5.69756 | 34321 ft | 467 kts | 258° |
| 2026-05-01 11:02 | 56.61523 | 5.58277 | 34318 ft | 467 kts | 257° |
| 2026-05-01 11:02 | 56.60026 | 5.46802 | 34326 ft | 467 kts | 257° |
| 2026-05-01 11:03 | 56.58520 | 5.35350 | 34325 ft | 468 kts | 257° |
| 2026-05-01 11:03 | 56.57000 | 5.23880 | 34314 ft | 468 kts | 257° |
| 2026-05-01 11:04 | 56.55471 | 5.12415 | 34307 ft | 468 kts | 257° |
| 2026-05-01 11:04 | 56.53948 | 5.00960 | 34289 ft | 468 kts | 259° |
| 2026-05-01 11:05 | 56.53027 | 4.89311 | 34312 ft | 468 kts | 264° |
| 2026-05-01 11:05 | 56.52293 | 4.77580 | 34309 ft | 469 kts | 264° |
| 2026-05-01 11:06 | 56.51538 | 4.65838 | 34308 ft | 470 kts | 264° |
| 2026-05-01 11:06 | 56.50749 | 4.54076 | 34299 ft | 470 kts | 263° |
| 2026-05-01 11:07 | 56.49539 | 4.36553 | 34295 ft | 469 kts | 263° |
| 2026-05-01 11:07 | 56.48714 | 4.24805 | 34298 ft | 469 kts | 263° |
| 2026-05-01 11:08 | 56.47881 | 4.13115 | 34293 ft | 468 kts | 263° |
| 2026-05-01 11:09 | 56.46622 | 3.95717 | 34278 ft | 466 kts | 263° |
| 2026-05-01 11:09 | 56.45765 | 3.84070 | 34288 ft | 466 kts | 263° |
| 2026-05-01 11:10 | 56.44468 | 3.66725 | 34281 ft | 465 kts | 262° |
| 2026-05-01 11:10 | 56.43590 | 3.55170 | 34269 ft | 464 kts | 262° |
| 2026-05-01 11:11 | 56.42700 | 3.43601 | 34273 ft | 463 kts | 262° |
| 2026-05-01 11:11 | 56.41805 | 3.32113 | 34266 ft | 463 kts | 262° |
| 2026-05-01 11:12 | 56.40900 | 3.20645 | 34265 ft | 462 kts | 262° |
| 2026-05-01 11:12 | 56.39984 | 3.09171 | 34248 ft | 463 kts | 261° |
| 2026-05-01 11:13 | 56.39051 | 2.97616 | 34247 ft | 463 kts | 261° |
| 2026-05-01 11:13 | 56.38114 | 2.86159 | 34249 ft | 463 kts | 261° |
| 2026-05-01 11:14 | 56.37187 | 2.74958 | 34251 ft | 464 kts | 261° |
| 2026-05-01 11:14 | 56.36225 | 2.63463 | 34242 ft | 464 kts | 261° |
| 2026-05-01 11:15 | 56.35248 | 2.51922 | 34245 ft | 464 kts | 261° |
| 2026-05-01 11:15 | 56.34268 | 2.40474 | 34238 ft | 464 kts | 260° |
| 2026-05-01 11:16 | 56.33269 | 2.28930 | 34241 ft | 464 kts | 260° |
| 2026-05-01 11:16 | 56.32266 | 2.17481 | 34236 ft | 464 kts | 260° |
| 2026-05-01 11:17 | 56.31251 | 2.06010 | 34237 ft | 464 kts | 259° |
| 2026-05-01 11:17 | 56.30226 | 1.94554 | 34238 ft | 464 kts | 259° |
| 2026-05-01 11:18 | 56.29187 | 1.83074 | 34238 ft | 464 kts | 259° |
| 2026-05-01 11:18 | 56.28140 | 1.71624 | 34232 ft | 464 kts | 259° |
| 2026-05-01 11:19 | 56.27090 | 1.60263 | 34233 ft | 463 kts | 259° |
| 2026-05-01 11:19 | 56.25959 | 1.48153 | 34216 ft | 463 kts | 258° |
| 2026-05-01 11:20 | 56.24880 | 1.36723 | 34220 ft | 463 kts | 258° |
| 2026-05-01 11:20 | 56.23792 | 1.25321 | 34217 ft | 462 kts | 258° |
| 2026-05-01 11:21 | 56.22697 | 1.13958 | 34219 ft | 462 kts | 258° |
| 2026-05-01 11:21 | 56.21590 | 1.02585 | 34207 ft | 462 kts | 258° |
| 2026-05-01 11:22 | 56.20475 | 0.91241 | 34208 ft | 462 kts | 257° |
| 2026-05-01 11:22 | 56.19349 | 0.79901 | 34202 ft | 462 kts | 257° |
| 2026-05-01 11:23 | 56.18210 | 0.68542 | 34210 ft | 462 kts | 257° |
| 2026-05-01 11:23 | 56.17067 | 0.57251 | 34204 ft | 462 kts | 257° |
| 2026-05-01 11:24 | 56.16100 | 0.47781 | 34200 ft | 462 kts | 257° |
| 2026-05-01 11:25 | 56.14351 | 0.30843 | 34195 ft | 462 kts | 257° |
| 2026-05-01 11:25 | 56.12540 | 0.13550 | 34200 ft | 462 kts | 256° |
| 2026-05-01 11:26 | 56.10742 | -0.03380 | 34305 ft | 458 kts | 256° |
| 2026-05-01 11:27 | 56.09563 | -0.14386 | 34192 ft | 446 kts | 256° |
| 2026-05-01 11:27 | 56.08382 | -0.25278 | 34186 ft | 446 kts | 256° |
| 2026-05-01 11:28 | 56.07184 | -0.36212 | 34184 ft | 447 kts | 256° |
| 2026-05-01 11:28 | 56.05978 | -0.47136 | 34187 ft | 450 kts | 256° |
| 2026-05-01 11:29 | 56.04133 | -0.63686 | 34186 ft | 453 kts | 256° |
| 2026-05-01 11:30 | 56.02261 | -0.80267 | 34176 ft | 455 kts | 256° |
| 2026-05-01 11:30 | 56.01002 | -0.91303 | 34171 ft | 456 kts | 255° |
| 2026-05-01 11:31 | 55.99719 | -1.02447 | 34171 ft | 456 kts | 255° |
| 2026-05-01 11:31 | 55.98438 | -1.13487 | 34170 ft | 455 kts | 255° |
| 2026-05-01 11:32 | 55.97150 | -1.24491 | 34165 ft | 455 kts | 255° |
| 2026-05-01 11:32 | 55.95847 | -1.35535 | 34166 ft | 455 kts | 255° |
| 2026-05-01 11:33 | 55.94533 | -1.46584 | 34164 ft | 455 kts | 255° |
| 2026-05-01 11:33 | 55.93210 | -1.57612 | 34161 ft | 455 kts | 255° |
| 2026-05-01 11:34 | 55.91881 | -1.68622 | 34155 ft | 455 kts | 255° |
| 2026-05-01 11:34 | 55.90516 | -1.79608 | 34158 ft | 455 kts | 254° |
| 2026-05-01 11:35 | 55.89060 | -1.90585 | 34152 ft | 455 kts | 254° |
| 2026-05-01 11:35 | 55.87580 | -2.01597 | 34148 ft | 456 kts | 254° |
| 2026-05-01 11:36 | 55.86110 | -2.12532 | 34154 ft | 456 kts | 254° |
| 2026-05-01 11:36 | 55.84628 | -2.23523 | 34144 ft | 457 kts | 254° |
| 2026-05-01 11:37 | 55.83136 | -2.34515 | 34145 ft | 458 kts | 254° |
| 2026-05-01 11:37 | 55.81634 | -2.45498 | 34124 ft | 458 kts | 254° |
| 2026-05-01 11:38 | 55.80116 | -2.56528 | 34126 ft | 459 kts | 254° |
| 2026-05-01 11:38 | 55.78592 | -2.67517 | 34141 ft | 459 kts | 254° |
| 2026-05-01 11:39 | 55.77054 | -2.78518 | 34134 ft | 459 kts | 254° |
| 2026-05-01 11:39 | 55.75928 | -2.86530 | 34134 ft | 459 kts | 254° |
| 2026-05-01 11:40 | 55.74378 | -2.97487 | 34130 ft | 459 kts | 253° |
| 2026-05-01 11:40 | 55.72814 | -3.08469 | 34137 ft | 459 kts | 253° |
| 2026-05-01 11:41 | 55.71249 | -3.19375 | 34147 ft | 459 kts | 253° |
| 2026-05-01 11:41 | 55.69667 | -3.30327 | 34138 ft | 459 kts | 253° |
| 2026-05-01 11:42 | 55.68062 | -3.41355 | 34142 ft | 459 kts | 253° |
| 2026-05-01 11:42 | 55.66461 | -3.52284 | 34142 ft | 459 kts | 253° |
| 2026-05-01 11:43 | 55.64852 | -3.63194 | 34140 ft | 459 kts | 253° |
| 2026-05-01 11:43 | 55.63221 | -3.74174 | 34135 ft | 460 kts | 252° |
| 2026-05-01 11:44 | 55.60752 | -3.90654 | 34135 ft | 460 kts | 252° |
| 2026-05-01 11:44 | 55.59093 | -4.01640 | 34134 ft | 460 kts | 252° |
| 2026-05-01 11:45 | 55.57440 | -4.12511 | 34133 ft | 460 kts | 252° |
| 2026-05-01 11:45 | 55.55770 | -4.23414 | 34128 ft | 460 kts | 252° |
| 2026-05-01 11:46 | 55.54093 | -4.34293 | 34136 ft | 460 kts | 251° |
| 2026-05-01 11:46 | 55.52404 | -4.45178 | 34132 ft | 460 kts | 251° |
| 2026-05-01 11:47 | 55.50699 | -4.56099 | 34133 ft | 460 kts | 251° |
| 2026-05-01 11:47 | 55.48993 | -4.66961 | 34131 ft | 460 kts | 251° |
| 2026-05-01 11:48 | 55.47536 | -4.77656 | 34138 ft | 461 kts | 255° |
| 2026-05-01 11:48 | 55.46316 | -4.88690 | 34135 ft | 461 kts | 255° |
| 2026-05-01 11:49 | 55.45074 | -4.99762 | 34132 ft | 461 kts | 255° |
| 2026-05-01 11:49 | 55.43776 | -5.10799 | 34137 ft | 460 kts | 254° |
| 2026-05-01 11:50 | 55.42441 | -5.21856 | 34135 ft | 460 kts | 253° |
| 2026-05-01 11:50 | 55.41099 | -5.32837 | 34138 ft | 459 kts | 253° |
| 2026-05-01 11:51 | 55.39748 | -5.43814 | 34134 ft | 459 kts | 253° |
| 2026-05-01 11:51 | 55.38391 | -5.54770 | 34133 ft | 459 kts | 253° |
| 2026-05-01 11:52 | 55.37025 | -5.65709 | 34134 ft | 459 kts | 253° |
| 2026-05-01 11:52 | 55.35649 | -5.76648 | 34134 ft | 460 kts | 253° |
| 2026-05-01 11:53 | 55.34250 | -5.87684 | 34124 ft | 460 kts | 252° |
| 2026-05-01 11:53 | 55.32849 | -5.98653 | 34127 ft | 460 kts | 252° |
| 2026-05-01 11:54 | 55.31438 | -6.09606 | 34123 ft | 460 kts | 252° |
| 2026-05-01 11:54 | 55.30027 | -6.20481 | 34119 ft | 460 kts | 252° |
| 2026-05-01 11:55 | 55.28586 | -6.31500 | 34108 ft | 461 kts | 252° |
| 2026-05-01 11:55 | 55.27153 | -6.42381 | 34110 ft | 461 kts | 252° |
| 2026-05-01 11:56 | 55.25700 | -6.53330 | 34108 ft | 461 kts | 251° |
| 2026-05-01 11:56 | 55.24231 | -6.64317 | 34099 ft | 461 kts | 251° |
| 2026-05-01 11:57 | 55.23004 | -6.73432 | 34101 ft | 462 kts | 251° |
| 2026-05-01 11:57 | 55.21281 | -6.86141 | 34101 ft | 462 kts | 251° |
| 2026-05-01 11:58 | 55.19787 | -6.97068 | 34100 ft | 462 kts | 251° |
| 2026-05-01 11:59 | 55.17524 | -7.13474 | 34111 ft | 463 kts | 251° |
| 2026-05-01 11:59 | 55.16005 | -7.24391 | 34110 ft | 463 kts | 250° |
| 2026-05-01 12:00 | 55.13961 | -7.38949 | 34075 ft | 463 kts | 250° |
| 2026-05-01 12:01 | 55.11644 | -7.55296 | 34082 ft | 462 kts | 250° |
| 2026-05-01 12:01 | 55.10079 | -7.66243 | 34079 ft | 463 kts | 250° |
| 2026-05-01 12:02 | 55.08532 | -7.76977 | 34080 ft | 463 kts | 250° |
| 2026-05-01 12:02 | 55.06954 | -7.87857 | 34083 ft | 463 kts | 250° |
| 2026-05-01 12:03 | 55.05370 | -7.98707 | 34095 ft | 463 kts | 249° |
| 2026-05-01 12:03 | 55.03775 | -8.09558 | 34109 ft | 463 kts | 249° |
| 2026-05-01 12:04 | 55.02168 | -8.20415 | 34108 ft | 464 kts | 249° |
| 2026-05-01 12:04 | 55.00539 | -8.31333 | 34111 ft | 464 kts | 249° |
| 2026-05-01 12:05 | 54.98909 | -8.42202 | 34106 ft | 465 kts | 249° |
| 2026-05-01 12:05 | 54.96437 | -8.58532 | 34094 ft | 466 kts | 249° |
| 2026-05-01 12:06 | 54.94774 | -8.69428 | 34088 ft | 466 kts | 248° |
| 2026-05-01 12:06 | 54.93101 | -8.80323 | 34083 ft | 466 kts | 248° |
| 2026-05-01 12:07 | 54.91425 | -8.91160 | 34076 ft | 466 kts | 248° |
| 2026-05-01 12:07 | 54.89736 | -9.02013 | 34077 ft | 466 kts | 248° |
| 2026-05-01 12:08 | 54.88037 | -9.12861 | 34069 ft | 466 kts | 248° |
| 2026-05-01 12:08 | 54.86329 | -9.23691 | 34078 ft | 466 kts | 248° |
| 2026-05-01 12:09 | 54.84613 | -9.34501 | 34082 ft | 465 kts | 247° |
| 2026-05-01 12:09 | 54.82887 | -9.45314 | 34078 ft | 465 kts | 247° |
| 2026-05-01 12:10 | 54.80279 | -9.61519 | 34071 ft | 465 kts | 247° |
| 2026-05-01 12:11 | 54.77644 | -9.77713 | 34074 ft | 466 kts | 247° |
| 2026-05-01 12:11 | 54.75882 | -9.88471 | 34081 ft | 466 kts | 247° |
| 2026-05-01 12:12 | 54.74108 | -9.99237 | 34082 ft | 466 kts | 247° |
| 2026-05-01 12:12 | 54.72321 | -10.10014 | 34081 ft | 467 kts | 247° |
| 2026-05-01 12:13 | 54.70511 | -10.20866 | 34077 ft | 467 kts | 247° |
| 2026-05-01 12:13 | 54.68712 | -10.31581 | 34082 ft | 468 kts | 247° |
| 2026-05-01 12:14 | 54.66887 | -10.42383 | 34077 ft | 468 kts | 247° |
| 2026-05-01 12:14 | 54.65046 | -10.53219 | 34074 ft | 469 kts | 247° |
| 2026-05-01 12:15 | 54.63204 | -10.63991 | 34080 ft | 469 kts | 247° |
| 2026-05-01 12:15 | 54.61347 | -10.74785 | 34073 ft | 470 kts | 247° |
| 2026-05-01 12:16 | 54.59477 | -10.85588 | 34070 ft | 471 kts | 247° |
| 2026-05-01 12:16 | 54.57597 | -10.96382 | 34070 ft | 471 kts | 248° |
| 2026-05-01 12:17 | 54.55700 | -11.07213 | 34073 ft | 472 kts | 248° |
| 2026-05-01 12:17 | 54.53799 | -11.17998 | 34070 ft | 473 kts | 248° |
| 2026-05-01 12:18 | 54.51874 | -11.28856 | 34066 ft | 473 kts | 248° |
| 2026-05-01 12:18 | 54.49940 | -11.39697 | 34069 ft | 474 kts | 248° |
| 2026-05-01 12:19 | 54.48000 | -11.50513 | 34071 ft | 475 kts | 248° |
| 2026-05-01 12:19 | 54.46046 | -11.61339 | 34062 ft | 476 kts | 248° |
| 2026-05-01 12:20 | 54.44076 | -11.72191 | 34064 ft | 477 kts | 249° |
| 2026-05-01 12:20 | 54.42087 | -11.83079 | 34060 ft | 478 kts | 249° |
| 2026-05-01 12:21 | 54.40087 | -11.93968 | 34064 ft | 479 kts | 249° |
| 2026-05-01 12:21 | 54.38068 | -12.04891 | 34066 ft | 481 kts | 249° |
| 2026-05-01 12:22 | 54.36036 | -12.15824 | 34064 ft | 482 kts | 249° |
| 2026-05-01 12:22 | 54.33990 | -12.26770 | 34063 ft | 483 kts | 249° |
| 2026-05-01 12:23 | 54.31933 | -12.37708 | 34063 ft | 484 kts | 249° |
| 2026-05-01 12:23 | 54.29852 | -12.48710 | 34064 ft | 485 kts | 249° |
| 2026-05-01 12:24 | 54.27762 | -12.59693 | 34070 ft | 486 kts | 249° |
| 2026-05-01 12:24 | 54.25660 | -12.70681 | 34060 ft | 487 kts | 249° |
| 2026-05-01 12:25 | 54.22489 | -12.87136 | 34076 ft | 488 kts | 249° |
| 2026-05-01 12:26 | 54.20344 | -12.98188 | 34067 ft | 488 kts | 249° |
| 2026-05-01 12:26 | 54.17136 | -13.14596 | 34076 ft | 489 kts | 249° |
| 2026-05-01 12:27 | 54.13875 | -13.31109 | 34079 ft | 491 kts | 249° |
| 2026-05-01 12:28 | 54.10589 | -13.47657 | 34085 ft | 492 kts | 249° |
| 2026-05-01 12:29 | 54.07277 | -13.64177 | 34086 ft | 492 kts | 249° |
| 2026-05-01 12:29 | 54.03921 | -13.80774 | 34092 ft | 494 kts | 250° |
| 2026-05-01 12:30 | 54.00787 | -13.97476 | 34097 ft | 496 kts | 258° |
| 2026-05-01 12:31 | 53.99843 | -14.09053 | 34090 ft | 494 kts | 265° |
| 2026-05-01 12:31 | 53.99601 | -14.20614 | 34094 ft | 488 kts | 271° |
| 2026-05-01 12:32 | 53.99932 | -14.31976 | 34106 ft | 482 kts | 276° |
| 2026-05-01 12:32 | 54.00943 | -14.49209 | 34120 ft | 494 kts | 277° |
| 2026-05-01 12:33 | 54.01623 | -14.60937 | 34125 ft | 495 kts | 277° |
| 2026-05-01 12:33 | 54.02347 | -14.72454 | 34122 ft | 487 kts | 282° |
| 2026-05-01 12:34 | 54.03322 | -14.83786 | 34130 ft | 485 kts | 276° |
| 2026-05-01 12:34 | 54.03413 | -14.95236 | 34130 ft | 485 kts | 271° |
| 2026-05-01 12:35 | 54.03349 | -15.06678 | 34143 ft | 483 kts | 274° |
| 2026-05-01 12:35 | 54.03595 | -15.18274 | 34149 ft | 483 kts | 275° |
| 2026-05-01 12:36 | 54.03881 | -15.29692 | 34151 ft | 484 kts | 275° |
| 2026-05-01 12:36 | 54.04117 | -15.41086 | 34162 ft | 486 kts | 275° |
| 2026-05-01 12:37 | 54.04316 | -15.52611 | 34155 ft | 487 kts | 275° |
| 2026-05-01 12:37 | 54.04497 | -15.64199 | 34157 ft | 488 kts | 275° |
| 2026-05-01 12:38 | 54.04666 | -15.75743 | 34161 ft | 487 kts | 275° |
| 2026-05-01 12:38 | 54.04826 | -15.87227 | 34168 ft | 486 kts | 275° |
| 2026-05-01 12:39 | 54.04975 | -15.98724 | 34170 ft | 485 kts | 275° |
| 2026-05-01 12:39 | 54.05113 | -16.10175 | 34173 ft | 484 kts | 276° |
| 2026-05-01 12:40 | 54.05241 | -16.21586 | 34180 ft | 483 kts | 276° |
| 2026-05-01 12:40 | 54.05357 | -16.32990 | 34186 ft | 482 kts | 276° |
| 2026-05-01 12:41 | 54.05462 | -16.44399 | 34189 ft | 482 kts | 276° |
| 2026-05-01 12:41 | 54.05556 | -16.55774 | 34188 ft | 481 kts | 276° |
| 2026-05-01 12:42 | 54.05640 | -16.67143 | 34192 ft | 481 kts | 276° |
| 2026-05-01 12:42 | 54.05713 | -16.78506 | 34198 ft | 481 kts | 275° |
| 2026-05-01 12:43 | 54.05776 | -16.90007 | 34198 ft | 480 kts | 275° |
| 2026-05-01 12:43 | 54.05827 | -17.01308 | 34197 ft | 480 kts | 275° |
| 2026-05-01 12:44 | 54.05867 | -17.12661 | 34200 ft | 480 kts | 275° |
| 2026-05-01 12:45 | 54.05916 | -17.35444 | 34211 ft | 480 kts | 275° |
| 2026-05-01 12:45 | 54.05925 | -17.46792 | 34214 ft | 480 kts | 275° |
| 2026-05-01 12:46 | 54.05922 | -17.58107 | 34216 ft | 479 kts | 275° |
| 2026-05-01 12:46 | 54.05909 | -17.69427 | 34220 ft | 478 kts | 275° |
| 2026-05-01 12:47 | 54.05885 | -17.80636 | 34221 ft | 476 kts | 275° |
| 2026-05-01 12:47 | 54.05851 | -17.91900 | 34222 ft | 475 kts | 275° |
| 2026-05-01 12:48 | 54.05807 | -18.03081 | 34227 ft | 473 kts | 275° |
| 2026-05-01 12:48 | 54.05753 | -18.14258 | 34233 ft | 472 kts | 275° |
| 2026-05-01 12:49 | 54.05688 | -18.25401 | 34229 ft | 470 kts | 275° |
| 2026-05-01 12:49 | 54.05614 | -18.36492 | 34236 ft | 469 kts | 275° |
| 2026-05-01 12:50 | 54.05529 | -18.47557 | 34238 ft | 467 kts | 275° |
| 2026-05-01 12:50 | 54.05435 | -18.58630 | 34234 ft | 466 kts | 275° |
| 2026-05-01 12:51 | 54.05331 | -18.69618 | 34237 ft | 465 kts | 275° |
| 2026-05-01 12:52 | 54.05157 | -18.86081 | 34240 ft | 465 kts | 275° |
| 2026-05-01 12:52 | 54.04960 | -19.02595 | 34246 ft | 465 kts | 274° |
| 2026-05-01 12:53 | 54.04740 | -19.19054 | 34247 ft | 466 kts | 274° |
| 2026-05-01 12:54 | 54.04607 | -19.28282 | 34243 ft | 466 kts | 274° |
| 2026-05-01 12:54 | 54.04352 | -19.44752 | 34247 ft | 466 kts | 274° |
| 2026-05-01 12:55 | 54.04073 | -19.61330 | 34250 ft | 466 kts | 274° |
| 2026-05-01 12:56 | 54.03876 | -19.72317 | 34264 ft | 465 kts | 274° |
| 2026-05-01 12:56 | 54.03668 | -19.83313 | 34257 ft | 465 kts | 274° |
| 2026-05-01 12:57 | 54.03453 | -19.94299 | 34269 ft | 465 kts | 274° |
| 2026-05-01 12:57 | 54.02796 | -20.10765 | 34268 ft | 467 kts | 270° |
| 2026-05-01 12:58 | 54.02128 | -20.21744 | 34273 ft | 467 kts | 270° |
| 2026-05-01 12:59 | 54.01127 | -20.38165 | 34272 ft | 467 kts | 270° |
| 2026-05-01 12:59 | 54.00127 | -20.54667 | 34280 ft | 467 kts | 270° |
| 2026-05-01 13:00 | 53.99111 | -20.71136 | 34283 ft | 468 kts | 269° |
| 2026-05-01 13:01 | 53.98070 | -20.87608 | 34285 ft | 468 kts | 269° |
| 2026-05-01 13:02 | 53.97005 | -21.04096 | 34291 ft | 468 kts | 269° |
| 2026-05-01 13:07 | 53.88523 | -22.24481 | 34332 ft | 468 kts | 266° |
| 2026-05-01 13:08 | 53.87691 | -22.35417 | 34314 ft | 468 kts | 266° |
| 2026-05-01 13:08 | 53.86851 | -22.46323 | 34310 ft | 469 kts | 266° |
| 2026-05-01 13:09 | 53.85997 | -22.57272 | 34326 ft | 469 kts | 266° |
| 2026-05-01 13:09 | 53.85130 | -22.68258 | 34314 ft | 469 kts | 266° |
| 2026-05-01 13:10 | 53.84258 | -22.79181 | 34322 ft | 469 kts | 266° |
| 2026-05-01 13:10 | 53.83376 | -22.90104 | 34321 ft | 469 kts | 266° |
| 2026-05-01 13:11 | 53.82485 | -23.01002 | 34326 ft | 469 kts | 266° |
| 2026-05-01 13:11 | 53.81583 | -23.11910 | 34329 ft | 469 kts | 266° |
| 2026-05-01 13:12 | 53.80672 | -23.22813 | 34330 ft | 469 kts | 265° |
| 2026-05-01 13:12 | 53.79748 | -23.33741 | 34329 ft | 469 kts | 265° |
| 2026-05-01 13:13 | 53.78816 | -23.44641 | 34337 ft | 469 kts | 265° |
| 2026-05-01 13:13 | 53.77874 | -23.55530 | 34343 ft | 469 kts | 265° |
| 2026-05-01 13:14 | 53.76922 | -23.66431 | 34342 ft | 469 kts | 265° |
| 2026-05-01 13:14 | 53.75963 | -23.77283 | 34341 ft | 469 kts | 265° |
| 2026-05-01 13:15 | 53.74992 | -23.88160 | 34345 ft | 469 kts | 265° |
| 2026-05-01 13:15 | 53.74005 | -23.99096 | 34346 ft | 469 kts | 265° |
| 2026-05-01 13:16 | 53.73014 | -24.09963 | 34350 ft | 469 kts | 265° |
| 2026-05-01 13:16 | 53.72014 | -24.20818 | 34350 ft | 468 kts | 265° |
| 2026-05-01 13:17 | 53.69985 | -24.42510 | 34358 ft | 468 kts | 265° |
| 2026-05-01 13:18 | 53.68436 | -24.58780 | 34361 ft | 468 kts | 265° |
| 2026-05-01 13:18 | 53.67394 | -24.69587 | 34362 ft | 468 kts | 265° |
| 2026-05-01 13:19 | 53.66341 | -24.80401 | 34362 ft | 467 kts | 265° |
| 2026-05-01 13:20 | 53.64742 | -24.96626 | 34373 ft | 467 kts | 265° |
| 2026-05-01 13:20 | 53.63668 | -25.07402 | 34369 ft | 467 kts | 265° |
| 2026-05-01 13:21 | 53.62035 | -25.23586 | 34377 ft | 467 kts | 265° |
| 2026-05-01 13:21 | 53.60941 | -25.34303 | 34378 ft | 466 kts | 265° |
| 2026-05-01 13:22 | 53.59828 | -25.45101 | 34383 ft | 466 kts | 265° |
| 2026-05-01 13:22 | 53.58717 | -25.55784 | 34381 ft | 466 kts | 265° |
| 2026-05-01 13:23 | 53.57586 | -25.66558 | 34383 ft | 466 kts | 265° |
| 2026-05-01 13:23 | 53.56453 | -25.77259 | 34390 ft | 466 kts | 265° |
| 2026-05-01 13:24 | 53.55309 | -25.87972 | 34386 ft | 465 kts | 265° |
| 2026-05-01 13:25 | 53.53579 | -26.03983 | 34388 ft | 466 kts | 265° |
| 2026-05-01 13:25 | 53.52411 | -26.14679 | 34396 ft | 466 kts | 265° |
| 2026-05-01 13:26 | 53.51232 | -26.25376 | 34394 ft | 466 kts | 264° |
| 2026-05-01 13:26 | 53.50044 | -26.36072 | 34402 ft | 466 kts | 264° |
| 2026-05-01 13:27 | 53.48848 | -26.46741 | 34413 ft | 466 kts | 264° |
| 2026-05-01 13:27 | 53.47031 | -26.62781 | 34411 ft | 466 kts | 264° |
| 2026-05-01 13:28 | 53.45191 | -26.78823 | 34409 ft | 466 kts | 264° |
| 2026-05-01 13:29 | 53.42715 | -27.00091 | 34413 ft | 466 kts | 264° |
| 2026-05-01 13:31 | 53.38928 | -27.31973 | 34420 ft | 466 kts | 263° |
| 2026-05-01 13:32 | 53.35700 | -27.58558 | 34428 ft | 465 kts | 263° |
| 2026-05-01 13:33 | 53.32423 | -27.85024 | 34437 ft | 465 kts | 263° |
| 2026-05-01 13:34 | 53.29760 | -28.06158 | 34436 ft | 465 kts | 262° |
| 2026-05-01 13:35 | 53.27731 | -28.22056 | 34441 ft | 465 kts | 262° |
| 2026-05-01 13:36 | 53.25686 | -28.37895 | 34442 ft | 465 kts | 262° |
| 2026-05-01 13:36 | 53.23622 | -28.53700 | 34447 ft | 465 kts | 262° |
| 2026-05-01 13:37 | 53.22235 | -28.64226 | 34446 ft | 465 kts | 262° |
| 2026-05-01 13:37 | 53.20836 | -28.74760 | 34448 ft | 465 kts | 261° |
| 2026-05-01 13:38 | 53.18722 | -28.90546 | 34451 ft | 465 kts | 261° |
| 2026-05-01 13:39 | 53.17299 | -29.01073 | 34450 ft | 465 kts | 261° |
| 2026-05-01 13:39 | 53.15872 | -29.11556 | 34462 ft | 465 kts | 261° |
| 2026-05-01 13:40 | 53.14429 | -29.22077 | 34457 ft | 466 kts | 261° |
| 2026-05-01 13:40 | 53.12979 | -29.32576 | 34455 ft | 466 kts | 261° |
| 2026-05-01 13:41 | 53.11519 | -29.43081 | 34462 ft | 466 kts | 261° |
| 2026-05-01 13:41 | 53.10051 | -29.53563 | 34461 ft | 466 kts | 260° |
| 2026-05-01 13:42 | 53.08570 | -29.64065 | 34467 ft | 467 kts | 260° |
| 2026-05-01 13:42 | 53.07080 | -29.74562 | 34472 ft | 467 kts | 260° |
| 2026-05-01 13:43 | 53.05581 | -29.85059 | 34477 ft | 467 kts | 260° |
| 2026-05-01 13:43 | 53.04078 | -29.95513 | 34478 ft | 467 kts | 260° |
| 2026-05-01 13:44 | 53.02919 | -30.06084 | 34458 ft | 463 kts | 268° |
| 2026-05-01 13:44 | 53.02335 | -30.16795 | 34466 ft | 464 kts | 268° |
| 2026-05-01 13:45 | 53.01755 | -30.27441 | 34479 ft | 464 kts | 268° |
| 2026-05-01 13:45 | 53.01144 | -30.38060 | 34476 ft | 464 kts | 267° |
| 2026-05-01 13:46 | 53.00506 | -30.48767 | 34480 ft | 465 kts | 267° |
| 2026-05-01 13:46 | 52.99857 | -30.59420 | 34481 ft | 465 kts | 267° |
| 2026-05-01 13:47 | 52.99198 | -30.70086 | 34485 ft | 465 kts | 266° |
| 2026-05-01 13:47 | 52.98531 | -30.80746 | 34482 ft | 465 kts | 266° |
| 2026-05-01 13:48 | 52.97854 | -30.91399 | 34484 ft | 465 kts | 266° |
| 2026-05-01 13:48 | 52.97166 | -31.02091 | 34485 ft | 465 kts | 266° |
| 2026-05-01 13:49 | 52.96470 | -31.12740 | 34486 ft | 465 kts | 266° |
| 2026-05-01 13:49 | 52.95761 | -31.23448 | 34488 ft | 465 kts | 266° |
| 2026-05-01 13:50 | 52.95046 | -31.34092 | 34494 ft | 466 kts | 266° |
| 2026-05-01 13:50 | 52.94320 | -31.44751 | 34492 ft | 466 kts | 266° |
| 2026-05-01 13:51 | 52.93583 | -31.55433 | 34497 ft | 466 kts | 265° |
| 2026-05-01 13:51 | 52.92840 | -31.66068 | 34497 ft | 466 kts | 265° |
| 2026-05-01 13:52 | 52.92081 | -31.76779 | 34497 ft | 467 kts | 265° |
| 2026-05-01 13:52 | 52.91317 | -31.87421 | 34496 ft | 467 kts | 265° |
| 2026-05-01 13:53 | 52.90543 | -31.98072 | 34499 ft | 467 kts | 265° |
| 2026-05-01 13:53 | 52.89489 | -32.12365 | 34504 ft | 468 kts | 265° |
| 2026-05-01 13:54 | 52.88693 | -32.23011 | 34499 ft | 468 kts | 264° |
| 2026-05-01 13:54 | 52.87884 | -32.33688 | 34504 ft | 468 kts | 264° |
| 2026-05-01 13:55 | 52.87067 | -32.44340 | 34506 ft | 468 kts | 264° |
| 2026-05-01 13:55 | 52.86233 | -32.55088 | 34506 ft | 468 kts | 264° |
| 2026-05-01 13:56 | 52.85394 | -32.65764 | 34508 ft | 468 kts | 264° |
| 2026-05-01 13:56 | 52.84548 | -32.76419 | 34505 ft | 469 kts | 264° |
| 2026-05-01 13:57 | 52.83688 | -32.87117 | 34506 ft | 469 kts | 264° |
| 2026-05-01 13:57 | 52.82820 | -32.97790 | 34513 ft | 469 kts | 263° |
| 2026-05-01 13:58 | 52.81942 | -33.08455 | 34510 ft | 470 kts | 263° |
| 2026-05-01 13:58 | 52.81048 | -33.19207 | 34510 ft | 470 kts | 263° |
| 2026-05-01 13:59 | 52.80149 | -33.29897 | 34513 ft | 470 kts | 263° |
| 2026-05-01 13:59 | 52.79243 | -33.40541 | 34515 ft | 470 kts | 263° |
| 2026-05-01 14:00 | 52.78326 | -33.51214 | 34514 ft | 470 kts | 263° |
| 2026-05-01 14:00 | 52.77397 | -33.61895 | 34519 ft | 470 kts | 262° |
| 2026-05-01 14:01 | 52.76455 | -33.72624 | 34520 ft | 470 kts | 262° |
| 2026-05-01 14:01 | 52.75513 | -33.83234 | 34517 ft | 470 kts | 262° |
| 2026-05-01 14:02 | 52.74550 | -33.93955 | 34520 ft | 469 kts | 262° |
| 2026-05-01 14:02 | 52.73589 | -34.04553 | 34523 ft | 469 kts | 262° |
| 2026-05-01 14:03 | 52.72612 | -34.15226 | 34524 ft | 470 kts | 262° |
| 2026-05-01 14:03 | 52.71630 | -34.25836 | 34521 ft | 470 kts | 261° |
| 2026-05-01 14:04 | 52.70632 | -34.36523 | 34522 ft | 470 kts | 261° |
| 2026-05-01 14:04 | 52.69626 | -34.47169 | 34524 ft | 470 kts | 261° |
| 2026-05-01 14:05 | 52.68606 | -34.57866 | 34524 ft | 470 kts | 261° |
| 2026-05-01 14:05 | 52.67585 | -34.68469 | 34529 ft | 470 kts | 261° |
| 2026-05-01 14:06 | 52.66556 | -34.79060 | 34528 ft | 470 kts | 261° |
| 2026-05-01 14:06 | 52.65508 | -34.89732 | 34530 ft | 471 kts | 260° |
| 2026-05-01 14:07 | 52.64449 | -35.00409 | 34528 ft | 471 kts | 260° |
| 2026-05-01 14:08 | 52.62854 | -35.16318 | 34532 ft | 472 kts | 260° |
| 2026-05-01 14:08 | 52.61773 | -35.26970 | 34532 ft | 474 kts | 260° |
| 2026-05-01 14:09 | 52.60676 | -35.37678 | 34528 ft | 474 kts | 259° |
| 2026-05-01 14:09 | 52.59572 | -35.48353 | 34532 ft | 475 kts | 259° |
| 2026-05-01 14:10 | 52.58459 | -35.59025 | 34535 ft | 475 kts | 259° |
| 2026-05-01 14:10 | 52.57328 | -35.69765 | 34530 ft | 474 kts | 259° |
| 2026-05-01 14:11 | 52.56196 | -35.80416 | 34533 ft | 474 kts | 259° |
| 2026-05-01 14:11 | 52.54480 | -35.96388 | 34536 ft | 474 kts | 259° |
| 2026-05-01 14:12 | 52.53319 | -36.07082 | 34534 ft | 474 kts | 259° |
| 2026-05-01 14:12 | 52.52154 | -36.17706 | 34534 ft | 475 kts | 258° |
| 2026-05-01 14:13 | 52.51167 | -36.26642 | 34536 ft | 475 kts | 258° |
| 2026-05-01 14:13 | 52.49786 | -36.39039 | 34538 ft | 475 kts | 258° |
| 2026-05-01 14:14 | 52.48583 | -36.49734 | 34536 ft | 475 kts | 258° |
| 2026-05-01 14:14 | 52.47378 | -36.60360 | 34536 ft | 475 kts | 258° |
| 2026-05-01 14:15 | 52.46160 | -36.71010 | 34533 ft | 476 kts | 258° |
| 2026-05-01 14:15 | 52.44934 | -36.81641 | 34532 ft | 476 kts | 257° |
| 2026-05-01 14:16 | 52.43692 | -36.92319 | 34537 ft | 476 kts | 257° |
| 2026-05-01 14:16 | 52.42443 | -37.02971 | 34531 ft | 476 kts | 257° |
| 2026-05-01 14:17 | 52.41183 | -37.13623 | 34537 ft | 477 kts | 257° |
| 2026-05-01 14:17 | 52.39917 | -37.24248 | 34540 ft | 477 kts | 257° |
| 2026-05-01 14:18 | 52.38635 | -37.34910 | 34540 ft | 478 kts | 257° |
| 2026-05-01 14:18 | 52.37561 | -37.43783 | 34537 ft | 478 kts | 256° |
| 2026-05-01 14:19 | 52.36043 | -37.56223 | 34538 ft | 479 kts | 256° |
| 2026-05-01 14:19 | 52.34733 | -37.66871 | 34537 ft | 479 kts | 256° |
| 2026-05-01 14:20 | 52.32734 | -37.82947 | 34538 ft | 480 kts | 256° |
| 2026-05-01 14:21 | 52.31400 | -37.93579 | 34534 ft | 480 kts | 256° |
| 2026-05-01 14:21 | 52.30042 | -38.04313 | 34541 ft | 481 kts | 255° |
| 2026-05-01 14:22 | 52.27995 | -38.20341 | 34540 ft | 482 kts | 255° |
| 2026-05-01 14:22 | 52.26615 | -38.31041 | 34538 ft | 482 kts | 255° |
| 2026-05-01 14:23 | 52.25224 | -38.41745 | 34541 ft | 483 kts | 255° |
| 2026-05-01 14:23 | 52.24953 | -38.43824 | 34538 ft | 483 kts | 255° |
| 2026-05-01 14:24 | 52.23538 | -38.54612 | 34543 ft | 484 kts | 255° |
| 2026-05-01 14:24 | 52.22122 | -38.65328 | 34539 ft | 485 kts | 255° |
| 2026-05-01 14:25 | 52.20687 | -38.76107 | 34536 ft | 485 kts | 254° |
| 2026-05-01 14:25 | 52.19250 | -38.86825 | 34542 ft | 486 kts | 254° |
| 2026-05-01 14:26 | 52.17068 | -39.02950 | 34538 ft | 486 kts | 254° |
| 2026-05-01 14:27 | 52.15594 | -39.13742 | 34538 ft | 487 kts | 254° |
| 2026-05-01 14:27 | 52.14105 | -39.24559 | 34538 ft | 488 kts | 254° |
| 2026-05-01 14:28 | 52.11869 | -39.40667 | 34536 ft | 489 kts | 253° |
| 2026-05-01 14:28 | 52.10355 | -39.51471 | 34540 ft | 489 kts | 253° |
| 2026-05-01 14:29 | 52.08839 | -39.62219 | 34536 ft | 490 kts | 253° |
| 2026-05-01 14:30 | 52.05759 | -39.83823 | 34532 ft | 492 kts | 253° |
| 2026-05-01 14:31 | 52.03441 | -40.00087 | 34540 ft | 494 kts | 255° |
| 2026-05-01 14:31 | 52.02614 | -40.11184 | 34547 ft | 497 kts | 262° |
| 2026-05-01 14:32 | 52.02024 | -40.22380 | 34539 ft | 498 kts | 262° |
| 2026-05-01 14:32 | 52.01412 | -40.33579 | 34528 ft | 498 kts | 262° |
| 2026-05-01 14:33 | 52.00760 | -40.44785 | 34540 ft | 498 kts | 261° |
| 2026-05-01 14:33 | 52.00086 | -40.55970 | 34541 ft | 498 kts | 261° |
| 2026-05-01 14:34 | 51.99401 | -40.67137 | 34529 ft | 498 kts | 261° |
| 2026-05-01 14:34 | 51.98705 | -40.78328 | 34528 ft | 498 kts | 261° |
| 2026-05-01 14:35 | 51.98001 | -40.89485 | 34525 ft | 497 kts | 261° |
| 2026-05-01 14:35 | 51.97289 | -41.00618 | 34529 ft | 497 kts | 261° |
| 2026-05-01 14:36 | 51.96567 | -41.11728 | 34535 ft | 496 kts | 261° |
| 2026-05-01 14:36 | 51.95832 | -41.22877 | 34528 ft | 496 kts | 261° |
| 2026-05-01 14:37 | 51.95089 | -41.33977 | 34528 ft | 495 kts | 261° |
| 2026-05-01 14:37 | 51.94337 | -41.45057 | 34530 ft | 495 kts | 261° |
| 2026-05-01 14:38 | 51.93575 | -41.56133 | 34528 ft | 494 kts | 261° |
| 2026-05-01 14:38 | 51.92807 | -41.67129 | 34534 ft | 494 kts | 261° |
| 2026-05-01 14:39 | 51.92025 | -41.78186 | 34525 ft | 493 kts | 261° |
| 2026-05-01 14:39 | 51.91234 | -41.89224 | 34526 ft | 492 kts | 261° |
| 2026-05-01 14:40 | 51.90434 | -42.00227 | 34524 ft | 491 kts | 261° |
| 2026-05-01 14:40 | 51.89632 | -42.11125 | 34523 ft | 491 kts | 261° |
| 2026-05-01 14:41 | 51.88814 | -42.22091 | 34519 ft | 490 kts | 261° |
| 2026-05-01 14:41 | 51.87989 | -42.33018 | 34523 ft | 489 kts | 261° |
| 2026-05-01 14:42 | 51.87155 | -42.43917 | 34524 ft | 488 kts | 260° |
| 2026-05-01 14:42 | 51.86313 | -42.54793 | 34526 ft | 487 kts | 260° |
| 2026-05-01 14:43 | 51.85462 | -42.65653 | 34518 ft | 486 kts | 260° |
| 2026-05-01 14:43 | 51.84603 | -42.76479 | 34523 ft | 485 kts | 260° |
| 2026-05-01 14:44 | 51.83735 | -42.87291 | 34522 ft | 484 kts | 260° |
| 2026-05-01 14:44 | 51.82416 | -43.03479 | 34516 ft | 483 kts | 260° |
| 2026-05-01 14:45 | 51.81083 | -43.19557 | 34515 ft | 481 kts | 260° |
| 2026-05-01 14:46 | 51.80338 | -43.28435 | 34511 ft | 480 kts | 260° |
| 2026-05-01 14:46 | 51.78969 | -43.44522 | 34516 ft | 479 kts | 260° |
| 2026-05-01 14:47 | 51.78052 | -43.55151 | 34512 ft | 478 kts | 260° |
| 2026-05-01 14:48 | 51.76666 | -43.71002 | 34512 ft | 476 kts | 260° |
| 2026-05-01 14:48 | 51.75255 | -43.86894 | 34512 ft | 475 kts | 260° |
| 2026-05-01 14:49 | 51.73350 | -44.07944 | 34511 ft | 474 kts | 260° |
| 2026-05-01 14:50 | 51.71414 | -44.28915 | 34511 ft | 473 kts | 260° |
| 2026-05-01 14:51 | 51.69941 | -44.44597 | 34506 ft | 472 kts | 260° |
| 2026-05-01 14:52 | 51.68444 | -44.60298 | 34507 ft | 471 kts | 259° |
| 2026-05-01 14:53 | 51.66935 | -44.75905 | 34504 ft | 470 kts | 259° |
| 2026-05-01 14:53 | 51.65920 | -44.86272 | 34511 ft | 469 kts | 259° |
| 2026-05-01 14:54 | 51.64892 | -44.96678 | 34507 ft | 469 kts | 259° |
| 2026-05-01 14:54 | 51.63884 | -45.06779 | 34505 ft | 468 kts | 259° |
| 2026-05-01 14:55 | 51.62831 | -45.17244 | 34504 ft | 468 kts | 259° |
| 2026-05-01 14:55 | 51.61782 | -45.27572 | 34501 ft | 467 kts | 259° |
| 2026-05-01 14:56 | 51.60730 | -45.37832 | 34503 ft | 467 kts | 259° |
| 2026-05-01 14:56 | 51.59666 | -45.48119 | 34493 ft | 466 kts | 258° |
| 2026-05-01 14:57 | 51.58595 | -45.58392 | 34504 ft | 466 kts | 258° |
| 2026-05-01 14:57 | 51.56971 | -45.73784 | 34501 ft | 466 kts | 258° |
| 2026-05-01 14:58 | 51.55875 | -45.84056 | 34500 ft | 465 kts | 258° |
| 2026-05-01 14:58 | 51.54774 | -45.94288 | 34500 ft | 465 kts | 258° |
| 2026-05-01 14:59 | 51.53664 | -46.04518 | 34498 ft | 465 kts | 258° |
| 2026-05-01 14:59 | 51.52547 | -46.14729 | 34500 ft | 465 kts | 258° |
| 2026-05-01 15:00 | 51.50852 | -46.30063 | 34486 ft | 465 kts | 258° |
| 2026-05-01 15:01 | 51.49712 | -46.40264 | 34503 ft | 464 kts | 257° |
| 2026-05-01 15:01 | 51.48567 | -46.50433 | 34502 ft | 464 kts | 257° |
| 2026-05-01 15:02 | 51.47414 | -46.60587 | 34500 ft | 464 kts | 257° |
| 2026-05-01 15:02 | 51.46242 | -46.70815 | 34488 ft | 464 kts | 257° |
| 2026-05-01 15:03 | 51.45069 | -46.80981 | 34486 ft | 465 kts | 257° |
| 2026-05-01 15:03 | 51.43886 | -46.91151 | 34493 ft | 465 kts | 257° |
| 2026-05-01 15:04 | 51.42694 | -47.01311 | 34490 ft | 465 kts | 257° |
| 2026-05-01 15:04 | 51.41490 | -47.11505 | 34487 ft | 466 kts | 257° |
| 2026-05-01 15:05 | 51.40280 | -47.21660 | 34487 ft | 466 kts | 257° |
| 2026-05-01 15:05 | 51.39050 | -47.31907 | 34490 ft | 466 kts | 257° |
| 2026-05-01 15:06 | 51.37821 | -47.42065 | 34483 ft | 466 kts | 257° |
| 2026-05-01 15:06 | 51.36583 | -47.52212 | 34484 ft | 467 kts | 257° |
| 2026-05-01 15:07 | 51.35325 | -47.62456 | 34481 ft | 467 kts | 257° |
| 2026-05-01 15:07 | 51.34064 | -47.72639 | 34485 ft | 468 kts | 257° |
| 2026-05-01 15:08 | 51.32792 | -47.82838 | 34483 ft | 468 kts | 256° |
| 2026-05-01 15:08 | 51.31510 | -47.93040 | 34479 ft | 469 kts | 256° |
| 2026-05-01 15:09 | 51.30219 | -48.03235 | 34481 ft | 469 kts | 256° |
| 2026-05-01 15:09 | 51.28917 | -48.13446 | 34481 ft | 470 kts | 256° |
| 2026-05-01 15:10 | 51.27603 | -48.23671 | 34477 ft | 470 kts | 256° |
| 2026-05-01 15:10 | 51.25616 | -48.38996 | 34477 ft | 471 kts | 256° |
| 2026-05-01 15:11 | 51.23600 | -48.54377 | 34472 ft | 472 kts | 256° |
| 2026-05-01 15:12 | 51.22244 | -48.64628 | 34470 ft | 472 kts | 256° |
| 2026-05-01 15:12 | 51.20195 | -48.79979 | 34472 ft | 474 kts | 256° |
| 2026-05-01 15:14 | 51.16720 | -49.05651 | 34468 ft | 476 kts | 256° |
| 2026-05-01 15:14 | 51.14603 | -49.21070 | 34469 ft | 477 kts | 256° |
| 2026-05-01 15:15 | 51.11731 | -49.41736 | 34463 ft | 477 kts | 256° |
| 2026-05-01 15:16 | 51.08828 | -49.62342 | 34452 ft | 478 kts | 256° |
| 2026-05-01 15:18 | 51.05137 | -49.88150 | 34453 ft | 481 kts | 256° |
| 2026-05-01 15:19 | 51.01588 | -50.08701 | 34449 ft | 484 kts | 248° |
| 2026-05-01 15:19 | 50.97917 | -50.23622 | 34440 ft | 487 kts | 248° |
| 2026-05-01 15:20 | 50.94253 | -50.38619 | 34442 ft | 487 kts | 248° |
| 2026-05-01 15:21 | 50.91807 | -50.48672 | 34434 ft | 486 kts | 248° |
| 2026-05-01 15:21 | 50.89379 | -50.58609 | 34432 ft | 484 kts | 248° |
| 2026-05-01 15:22 | 50.85734 | -50.73434 | 34426 ft | 483 kts | 248° |
| 2026-05-01 15:22 | 50.83288 | -50.83323 | 34426 ft | 482 kts | 248° |
| 2026-05-01 15:23 | 50.80825 | -50.93235 | 34426 ft | 482 kts | 248° |
| 2026-05-01 15:23 | 50.78381 | -51.03029 | 34419 ft | 481 kts | 248° |
| 2026-05-01 15:24 | 50.75912 | -51.12882 | 34422 ft | 480 kts | 248° |
| 2026-05-01 15:24 | 50.73459 | -51.22626 | 34414 ft | 480 kts | 248° |
| 2026-05-01 15:25 | 50.70971 | -51.32464 | 34417 ft | 481 kts | 248° |
| 2026-05-01 15:25 | 50.68492 | -51.42225 | 34417 ft | 481 kts | 248° |
| 2026-05-01 15:26 | 50.65988 | -51.52046 | 34413 ft | 481 kts | 248° |
| 2026-05-01 15:26 | 50.63497 | -51.61771 | 34413 ft | 480 kts | 248° |
| 2026-05-01 15:27 | 50.60805 | -51.71395 | 34494 ft | 482 kts | 241° |
| 2026-05-01 15:27 | 50.59142 | -51.75986 | 34836 ft | 480 kts | 239° |
| 2026-05-01 15:28 | 50.55696 | -51.84869 | 35656 ft | 474 kts | 238° |
| 2026-05-01 15:28 | 50.54008 | -51.89291 | 35863 ft | 476 kts | 239° |
| 2026-05-01 15:28 | 50.52312 | -51.93809 | 36082 ft | 477 kts | 239° |
| 2026-05-01 15:29 | 50.49227 | -52.02982 | 36332 ft | 476 kts | 248° |
| 2026-05-01 15:29 | 50.48080 | -52.07793 | 36400 ft | 474 kts | 250° |
| 2026-05-01 15:30 | 50.43984 | -52.25645 | 36391 ft | 471 kts | 249° |
| 2026-05-01 15:31 | 50.36800 | -52.56074 | 36384 ft | 470 kts | 249° |
| 2026-05-01 15:32 | 50.32209 | -52.75247 | 36379 ft | 470 kts | 248° |
| 2026-05-01 15:34 | 50.25270 | -53.03919 | 36371 ft | 471 kts | 248° |